Alton, IL (62002)

8:47 AM CDT on September 01, 2015 (GMT -0500)
Alton Amtrak | | Change Station
CLOSE
Current Station
Personal Weather Station
Location: Alton, IL
Elevation: 489 ft
Nearby Weather Stations

Elev 489 ft 38.91 °N, 90.14 °W | Updated 2 minutes ago

Clear
Clear
76.3 °F
Feels Like 76 °F
N
2.2
Wind Variable Wind from NNW
Gusts 2.2 mph

Today
High -- | Low -- °F
--% Chance of Precip.
Yesterday
High -- | Low -- °F
Precip. -- in
6:29 AM 7:31 PM
Waning Gibbous, 89% visible
Pressure 30.10 in
Visibility 7.0 miles
Clouds Few 10000 ft
Heat Index 76 °F
Dew Point 76 °F
Humidity 99%
Rainfall 0.00 in
Snow Depth Not available.
UV 1 out of 12
Pollen 11.00 out of 12
Air Quality Not available.
Flu Activity Not available.
METAR KALN 011250Z 20004KT 7SM FEW100 22/21 A3010
Pressure 30.10 in
Visibility 7.0 miles
Clouds Few 10000 ft
Heat Index 76 °F
Dew Point 76 °F
Humidity 99%
Rainfall 0.00 in
Snow Depth Not available.
UV 1 out of 12
Pollen 11.00 out of 12
Air Quality Not available.
Flu Activity Not available.
METAR KALN 011250Z 20004KT 7SM FEW100 22/21 A3010

10-Day Weather Forecast

×

Almanac

Astronomy

Sep. 01, 2015 Rise Set
Actual Time
Civil Twilight
Nautical Twilight
Astronomical Twilight
Moon
Length of Visible Light
Length of Day
Tomorrow will be .
, % of the Moon is Illuminated

Today's Extremes

State Highs State Lows

Community

WunderPhotos

Upload Photos

1,851,511 photos uploaded!

WunderBlogs® & News

Nearby

Air Quality

  Air Quality AQ Index Pollutant
Not available.

Snow Depth

Station Depth Elevation

Earthquake Activity

City Distance Mag. Time & Date
Minimum magnitude displayed is 2.5.

Coastal Water Temperatures

Place Temperature

Stations

Nearby Weather Stations

Station Location Temp. Windchill Dew Point Humidity Wind Precip. Elev Updated Type